This is the latest recevied weather packets stored in our database for station/object KC3QJO. If no packets are shown the sender has not sent any weather packets the latest 10 day(s).
| Time | Temp. | Humidity | Pressure | Rain* | Wind** | Luminosity | Snow |
|---|---|---|---|---|---|---|---|
| 1778110268 | 16.67° C | 90% | 1006.7 hPa | 0 mm | - | 0 W/m² | - |
| 1778109360 | 16.67° C | 90% | 1006.4 hPa | 0 mm | - | 12 W/m² | - |
| 1778106654 | 16.67° C | 92% | 1006.3 hPa | 0 mm | - | 49 W/m² | - |
| 1778106052 | 16.67° C | 92% | 1006.4 hPa | 0 mm | - | 44 W/m² | - |
| 1778099459 | 15° C | 93% | 1005.7 hPa | 0 mm | - | 42 W/m² | - |
| 1778098564 | 15° C | 93% | 1005.8 hPa | 0 mm | - | 39 W/m² | - |
| 1778098251 | 15° C | 93% | 1005.7 hPa | 0 mm | - | 46 W/m² | - |
| 1778096451 | 15° C | 93% | 1005.9 hPa | 0 mm | - | 77 W/m² | - |
| 1778096151 | 15° C | 93% | 1005.9 hPa | 0 mm | - | 104 W/m² | - |
| 1778095859 | 15° C | 93% | 1006 hPa | 0 mm | - | 98 W/m² | - |
| 1778094963 | 15° C | 93% | 1006.2 hPa | 0.25 mm | - | 69 W/m² | - |
| 1778091381 | 14.44° C | 93% | 1006.6 hPa | 2.03 mm | - | 35 W/m² | - |
| 1778091052 | 14.44° C | 93% | 1006.7 hPa | 2.29 mm | - | 53 W/m² | - |
| 1778088951 | 15° C | 92% | 1006.7 hPa | 1.78 mm | - | 93 W/m² | - |
| 1778088051 | 15° C | 92% | 1006.8 hPa | 1.27 mm | - | 102 W/m² | - |
| 1778087451 | 15° C | 91% | 1006.8 hPa | 0.76 mm | - | 116 W/m² | - |
| 1778083551 | 15° C | 91% | 1006.9 hPa | 1.52 mm | - | 81 W/m² | - |
| 1778080852 | 15.56° C | 89% | 1007.8 hPa | 1.27 mm | - | 47 W/m² | - |
| 1778080258 | 15.56° C | 88% | 1007.8 hPa | 1.27 mm | - | 67 W/m² | - |
| 1778079052 | 16.11° C | 87% | 1007.7 hPa | 1.02 mm | - | 91 W/m² | - |
| 1778077855 | 16.11° C | 84% | 1008 hPa | 0.51 mm | - | 65 W/m² | - |
| 1778076659 | 16.67° C | 82% | 1007.9 hPa | 0 mm | - | 39 W/m² | - |
| 1778073356 | 17.22° C | 78% | 1008 hPa | 0 mm | - | 70 W/m² | - |
| 1778072462 | 17.22° C | 76% | 1008.1 hPa | 0 mm | - | 33 W/m² | - |
| 1778072153 | 17.78° C | 75% | 1008.1 hPa | 0 mm | - | 37 W/m² | - |
* Rain latest hour (hover to see other rain measurements)
** Current wind speed in m/s (hover to see current wind gust speed)